• Join FlightAware (Why Join?)
  • Login
  • US Flag 
11:23AM EDT


 

Airport Tracker/Info


-or-


 

Live Flight TrackerFlight Track Log ✈ N69CK ✈ 18-May-2012 ✈ KCRP - KMLC

Flight Track Log - Related Links

Times and Time Zones

All times are in EDT time to prevent confusion due to time zone crossing. See the N69CK flight status page for this flight to view local times or setup timezone preferences in your user account.

Time Position Orientation Groundspeed Altitude Reporting Facility
EDT Latitude Longitude Course Direction KTS MPH feet Rate Location/Type
11:35PM 27.7561 -97.4969 170° South 108 124 500  Level Houston Center
11:36PM 27.7250 -97.4906 255° West 112 129 1,700 900 Climbing Houston Center
11:37PM 27.7175 -97.5231 308° West 130 150 2,500 720 Climbing Houston Center
11:39PM 27.7508 -97.5717 332° Northwest 148 170 3,600 720 Climbing Houston Center
11:40PM 27.7853 -97.5925 329° Northwest 142 163 4,400 720 Climbing Houston Center
11:41PM 27.8219 -97.6178 323° Northwest 142 163 5,100 720 Climbing Houston Center
11:42PM 27.8542 -97.6456 316° Northwest 147 169 5,900 780 Climbing Houston Center
11:43PM 27.8839 -97.6775 314° West 147 169 6,700 780 Climbing Houston Center
11:44PM 27.9117 -97.7097 318° Northwest 140 161 7,500 780 Climbing Houston Center
11:45PM 27.9436 -97.7419 315° West 145 167 8,300 660 Climbing Houston Center
11:46PM 27.9656 -97.7667 328° Northwest 140 161 8,900 360 Climbing Houston Center
11:47PM 28.0019 -97.7922 326° Northwest 145 167 9,100 360 Climbing Houston Center
11:48PM 28.0383 -97.8203 329° Northwest 152 175 9,700 600 Climbing Houston Center
11:49PM 28.0728 -97.8433 25° Northeast 150 173 10,400 600 Climbing Houston Center
11:50PM 28.1092 -97.8242 22° Northeast 127 146 11,000 660 Climbing Houston Center
11:51PM 28.1453 -97.8075 10° North 127 146 11,800 660 Climbing Houston Center
11:52PM 28.1811 -97.8000 360° North 127 146 12,400 600 Climbing Houston Center
11:53PM 28.2269 -97.8003 North 140 161 13,100 660 Climbing Houston Center
11:54PM 28.2647 -97.7956 13° North 145 167 13,800 600 Climbing Houston Center
11:55PM 28.3008 -97.7858 13° North 135 155 14,400 600 Climbing Houston Center
11:56PM 28.3367 -97.7761 15° North 135 155 15,100 600 Climbing Houston Center
11:57PM 28.3747 -97.7642 15° North 135 155 15,700 600 Climbing Houston Center
11:58PM 28.4150 -97.7522 12° North 135 155 16,300 600 Climbing Houston Center
11:59PM 28.4550 -97.7425 15° North 135 155 17,000 600 Climbing Houston Center
12:00AM 28.4931 -97.7306 16° North 135 155 17,500 540 Climbing Houston Center
12:01AM 28.5292 -97.7186 15° North 135 155 18,100 480 Climbing Houston Center
12:02AM 28.5694 -97.7067 17° North 141 162 18,500 360 Climbing Houston Center
12:03AM 28.6097 -97.6925 16° North 147 169 18,900 240 Climbing Houston Center
12:04AM 28.6542 -97.6783 12° North 147 169 19,000  Climbing Houston Center
12:05AM 28.7006 -97.6667 15° North 158 182 19,000  Level Houston Center
12:06AM 28.7469 -97.6528 13° North 163 188 19,000  Level Houston Center
12:07AM 28.7978 -97.6392 13° North 174 200 19,000  Level Houston Center
12:08AM 28.8506 -97.6256 14° North 179 206 19,000  Level Houston Center
12:09AM 28.9011 -97.6117 15° North 185 213 19,000  Level Houston Center
12:10AM 28.9519 -97.5956 15° North 185 213 19,000  Level Houston Center
12:11AM 29.0047 -97.5794 13° North 185 213 19,000  Level Houston Center
12:12AM 29.0575 -97.5658 14° North 185 213 19,000  Level Houston Center
12:13AM 29.1125 -97.5500 15° North 185 213 19,000  Level Houston Center
12:14AM 29.1653 -97.5339 14° North 185 213 19,000  Level Houston Center
12:15AM 29.2203 -97.5181 16° North 185 213 19,000  Level Houston Center
12:16AM 29.2711 -97.5017 12° North 185 213 19,000  Level Houston Center
12:17AM 29.3258 -97.4881 17° North 185 213 19,000  Level Houston Center
12:18AM 29.3789 -97.4697 15° North 185 213 19,000  Level Houston Center
12:19AM 29.4317 -97.4536 12° North 185 213 19,000  Level Houston Center
12:20AM 29.4867 -97.4400 15° North 185 213 19,000  Level Houston Center
12:21AM 29.5394 -97.4239 13° North 185 213 19,000  Level Houston Center
12:22AM 29.5922 -97.4100 15° North 185 213 19,000  Level Houston Center
12:23AM 29.6450 -97.3939 12° North 185 213 19,000  Level Houston Center
12:24AM 29.7019 -97.3803 17° North 185 213 19,000  Level Houston Center
12:25AM 29.7442 -97.3658 14° North 185 213 19,000  Level Houston Center
12:26AM 29.8075 -97.3478 15° North 185 213 19,000  Level Houston Center
12:27AM 29.8542 -97.3336 14° North 185 213 19,000  Level Houston Center
12:28AM 29.9089 -97.3175 15° North 185 213 19,000  Level Houston Center
12:29AM 29.9619 -97.3011 12° North 185 213 19,000  Level Houston Center
12:30AM 30.0167 -97.2875 15° North 185 213 19,000  Level Houston Center
12:31AM 30.0694 -97.2711 17° North 185 213 19,000  Level Houston Center
12:32AM 30.1267 -97.2503 16° North 185 213 19,000  Level Houston Center
12:33AM 30.1753 -97.2339 13° North 191 220 19,000  Level Houston Center
12:34AM 30.2281 -97.2197 12° North 191 220 19,000  Level Houston Center
12:35AM 30.2828 -97.2061 15° North 191 220 19,000  Level Houston Center
12:36AM 30.3358 -97.1897 14° North 191 220 19,000  Level Houston Center
12:37AM 30.3906 -97.1733 13° North 197 227 19,000  Level Houston Center
12:38AM 30.4433 -97.1594 14° North 197 227 19,000  Level Houston Center
12:39AM 30.4983 -97.1431 13° North 202 232 19,000  Level Houston Center
12:40AM 30.5572 -97.1269 16° North 202 232 19,000  Level Houston Center
12:41AM 30.6144 -97.1083 16° North 208 239 19,000  Level Houston Center
12:42AM 30.6694 -97.0897 13° North 202 232 19,000  Level Houston Center
12:43AM 30.7242 -97.0756 14° North 202 232 19,000  Level Houston Center
12:44AM 30.7792 -97.0592 15° North 207 238 19,000  Level Houston Center
12:46AM 30.8975 -97.0211 14° North 215 247 19,000  Level Fort Worth Center
12:47AM 30.9494 -97.0064 13° North 202 232 19,000  Level Fort Worth Center
12:48AM 31.0039 -96.9917 15° North 202 232 19,000  Level Fort Worth Center
12:49AM 31.0581 -96.9744 13° North 202 232 19,000  Level Fort Worth Center
12:50AM 31.1144 -96.9597 17° North 202 232 19,000  Level Fort Worth Center
12:51AM 31.1644 -96.9422 13° North 197 227 19,000  Level Fort Worth Center
12:52AM 31.2186 -96.9275 13° North 202 232 19,000  Level Fort Worth Center
12:53AM 31.2728 -96.9125 17° North 202 232 19,000  Level Fort Worth Center
12:54AM 31.3292 -96.8928 15° North 202 232 19,000  Level Fort Worth Center
12:55AM 31.3856 -96.8756 13° North 202 232 19,000  Level Fort Worth Center
12:56AM 31.4397 -96.8606 15° North 202 232 19,000  Level Fort Worth Center
12:57AM 31.4939 -96.8433 14° North 202 232 19,000  Level Fort Worth Center
12:58AM 31.5544 -96.8258 15° North 202 232 19,000  Level Fort Worth Center
12:59AM 31.6086 -96.8083 13° North 202 232 19,000  Level Fort Worth Center
01:00AM 31.6647 -96.7933 13° North 202 232 19,000  Level Fort Worth Center
01:01AM 31.7192 -96.7783 17° North 202 232 19,000  Level Fort Worth Center
01:02AM 31.7733 -96.7583 13° North 202 232 19,000  Level Fort Worth Center
01:03AM 31.8294 -96.7433 13° North 202 232 19,000  Level Fort Worth Center
01:04AM 31.8858 -96.7283 15° North 202 232 19,000  Level Fort Worth Center
01:05AM 31.9400 -96.7108 17° North 202 232 19,000  Level Fort Worth Center
01:06AM 31.9900 -96.6933 13° North 202 232 19,000  Level Fort Worth Center
01:07AM 32.0442 -96.6781 15° North 202 232 19,000  Level Fort Worth Center
01:08AM 32.1006 -96.6606 14° North 202 232 19,000  Level Fort Worth Center
01:09AM 32.1608 -96.6428 17° North 202 232 19,000  Level Fort Worth Center
01:10AM 32.2172 -96.6228 10° North 202 232 19,000  Level Fort Worth Center
01:11AM 32.2672 -96.6125 16° North 202 232 19,000  Level Fort Worth Center
01:12AM 32.3256 -96.5922 14° North 202 232 19,000  Level Fort Worth Center
01:13AM 32.3775 -96.5769 14° North 202 232 19,000  Level Fort Worth Center
01:14AM 32.4358 -96.5592 14° North 202 232 19,000  Level Fort Worth Center
01:15AM 32.4881 -96.5439 14° North 202 232 19,000  Level Fort Worth Center
01:16AM 32.5483 -96.5261 14° North 202 232 19,000  Level Fort Worth Center
01:17AM 32.5983 -96.5108 16° North 197 227 19,000  Level Fort Worth Center
01:18AM 32.6589 -96.4906 14° North 205 236 19,000  Level Fort Worth Center
01:19AM 32.7089 -96.4753 17° North 205 236 19,000  Level Fort Worth Center
01:20AM 32.7672 -96.4547 14° North 205 236 19,000  Level Fort Worth Center
01:21AM 32.8192 -96.4394 14° North 200 230 19,000  Level Fort Worth Center
01:22AM 32.8797 -96.4214 16° North 200 230 19,000  Level Fort Worth Center
01:23AM 32.9317 -96.4036 16° North 200 230 19,000  Level Fort Worth Center
01:24AM 32.9919 -96.3831 10° North 200 230 19,000  Level Fort Worth Center
01:25AM 33.0419 -96.3725 17° North 200 230 19,000  Level Fort Worth Center
01:26AM 33.1044 -96.3494 14° North 200 230 19,000  Level Fort Worth Center
01:27AM 33.1564 -96.3342 14° North 200 230 19,000  Level Fort Worth Center
01:28AM 33.2169 -96.3158 15° North 200 230 19,000  Level Fort Worth Center
01:29AM 33.2731 -96.2978 15° North 200 230 19,000  Level Fort Worth Center
01:30AM 33.3292 -96.2797 15° North 200 230 19,000  Level Fort Worth Center
01:31AM 33.3856 -96.2617 15° North 200 230 19,000  Level Fort Worth Center
01:32AM 33.4417 -96.2433 13° North 200 230 19,000  Level Fort Worth Center
01:33AM 33.5000 -96.2278 16° North 205 236 19,000 -60 Level Fort Worth Center
01:34AM 33.5542 -96.2094 16° North 200 230 18,900 -360 Descending Fort Worth Center
01:35AM 33.6144 -96.1889 16° North 205 236 18,300 -780 Descending Fort Worth Center
01:36AM 33.6767 -96.1681 13° North 216 249 17,400 -1,140 Descending Fort Worth Center
01:37AM 33.7414 -96.1494 14° North 233 268 16,100 -1,140 Descending Fort Worth Center
01:38AM 33.8036 -96.1311 11° North 233 268 15,200 -900 Descending Fort Worth Center
01:39AM 33.8703 -96.1150 13° North 238 274 14,300 -840 Descending Fort Worth Center
01:40AM 33.9244 -96.0994 14° North 232 267 13,600 -900 Descending Fort Worth Center
01:41AM 33.9847 -96.0808 14° North 222 255 12,600 -960 Descending Fort Worth Center
01:42AM 34.0450 -96.0625 15° North 222 255 11,700 -1,020 Descending Fort Worth Center
01:43AM 34.1117 -96.0414 16° North 215 247 10,600 -1,020 Descending Fort Worth Center
01:44AM 34.1739 -96.0203 14° North 215 247 9,700 -960 Descending Fort Worth Center
01:45AM 34.2342 -96.0017 17° North 222 255 8,700 -1,020 Descending Fort Worth Center
01:46AM 34.2986 -95.9781 13° North 222 255 7,700 -1,020 Descending Fort Worth Center
01:47AM 34.3631 -95.9594 15° North 222 255 6,700 -900 Descending Fort Worth Center
01:48AM 34.4275 -95.9381 19° North 222 255 5,900 -660 Descending Fort Worth Center
01:49AM 34.4900 -95.9119 11° North 222 255 5,400 -540 Descending Fort Worth Center
01:50AM 34.5481 -95.8983 11° North 227 261 4,900 -540 Descending Fort Worth Center